sensor_id;sensor_type;location;lat;lon;timestamp;temperature;humidity
14755;DHT22;7469;50.906;6.952;2022-07-29T00:00:19;20.10;56.70
14755;DHT22;7469;50.906;6.952;2022-07-29T00:02:48;20.10;57.00
14755;DHT22;7469;50.906;6.952;2022-07-29T00:05:16;20.10;57.20
14755;DHT22;7469;50.906;6.952;2022-07-29T00:07:44;20.10;57.20
14755;DHT22;7469;50.906;6.952;2022-07-29T00:10:12;20.00;57.10
14755;DHT22;7469;50.906;6.952;2022-07-29T00:12:40;20.10;57.20
14755;DHT22;7469;50.906;6.952;2022-07-29T00:15:08;20.10;57.30
14755;DHT22;7469;50.906;6.952;2022-07-29T00:17:36;20.10;57.20
14755;DHT22;7469;50.906;6.952;2022-07-29T00:20:07;20.10;57.30
14755;DHT22;7469;50.906;6.952;2022-07-29T00:22:37;20.10;57.60
14755;DHT22;7469;50.906;6.952;2022-07-29T00:25:06;20.10;58.20
14755;DHT22;7469;50.906;6.952;2022-07-29T00:27:34;20.10;58.60
14755;DHT22;7469;50.906;6.952;2022-07-29T00:30:03;20.10;59.20
14755;DHT22;7469;50.906;6.952;2022-07-29T00:32:31;20.10;59.90
14755;DHT22;7469;50.906;6.952;2022-07-29T00:34:59;20.00;61.10
14755;DHT22;7469;50.906;6.952;2022-07-29T00:37:46;20.00;61.90
14755;DHT22;7469;50.906;6.952;2022-07-29T00:40:14;20.00;62.10
14755;DHT22;7469;50.906;6.952;2022-07-29T00:42:43;20.00;62.20
14755;DHT22;7469;50.906;6.952;2022-07-29T00:45:11;20.00;62.40
14755;DHT22;7469;50.906;6.952;2022-07-29T00:47:39;20.00;62.70
14755;DHT22;7469;50.906;6.952;2022-07-29T00:50:09;20.00;63.00
14755;DHT22;7469;50.906;6.952;2022-07-29T00:52:39;20.00;63.50
14755;DHT22;7469;50.906;6.952;2022-07-29T00:55:10;20.00;63.80
14755;DHT22;7469;50.906;6.952;2022-07-29T00:57:38;19.90;64.10
14755;DHT22;7469;50.906;6.952;2022-07-29T01:00:10;19.90;64.50
14755;DHT22;7469;50.906;6.952;2022-07-29T01:02:38;19.90;65.00
14755;DHT22;7469;50.906;6.952;2022-07-29T01:05:07;19.90;65.30
14755;DHT22;7469;50.906;6.952;2022-07-29T01:07:35;19.90;65.60
14755;DHT22;7469;50.906;6.952;2022-07-29T01:10:05;19.80;66.00
14755;DHT22;7469;50.906;6.952;2022-07-29T01:12:37;19.80;66.50
14755;DHT22;7469;50.906;6.952;2022-07-29T01:15:07;19.80;67.20
14755;DHT22;7469;50.906;6.952;2022-07-29T01:17:41;19.80;67.30
14755;DHT22;7469;50.906;6.952;2022-07-29T01:20:24;19.90;67.30
14755;DHT22;7469;50.906;6.952;2022-07-29T01:23:15;19.90;67.10
14755;DHT22;7469;50.906;6.952;2022-07-29T01:25:57;19.90;66.90
14755;DHT22;7469;50.906;6.952;2022-07-29T01:28:39;19.90;67.60
14755;DHT22;7469;50.906;6.952;2022-07-29T01:31:12;19.80;68.70
14755;DHT22;7469;50.906;6.952;2022-07-29T01:33:56;19.90;69.60
14755;DHT22;7469;50.906;6.952;2022-07-29T01:36:31;19.80;69.50
14755;DHT22;7469;50.906;6.952;2022-07-29T01:39:05;19.80;69.80
14755;DHT22;7469;50.906;6.952;2022-07-29T01:41:36;19.80;70.20
14755;DHT22;7469;50.906;6.952;2022-07-29T01:44:13;19.80;70.50
14755;DHT22;7469;50.906;6.952;2022-07-29T01:46:48;19.80;71.10
14755;DHT22;7469;50.906;6.952;2022-07-29T01:49:20;19.80;71.60
14755;DHT22;7469;50.906;6.952;2022-07-29T01:51:51;19.80;72.40
14755;DHT22;7469;50.906;6.952;2022-07-29T01:54:26;19.70;72.60
14755;DHT22;7469;50.906;6.952;2022-07-29T01:56:58;19.70;73.30
14755;DHT22;7469;50.906;6.952;2022-07-29T01:59:29;19.70;74.50
14755;DHT22;7469;50.906;6.952;2022-07-29T02:01:59;19.70;75.40
14755;DHT22;7469;50.906;6.952;2022-07-29T02:04:29;19.60;75.70
14755;DHT22;7469;50.906;6.952;2022-07-29T02:07:02;19.60;76.80
14755;DHT22;7469;50.906;6.952;2022-07-29T02:09:33;19.60;76.40
14755;DHT22;7469;50.906;6.952;2022-07-29T02:12:03;19.50;77.00
14755;DHT22;7469;50.906;6.952;2022-07-29T02:14:36;19.50;77.50
14755;DHT22;7469;50.906;6.952;2022-07-29T02:17:06;19.40;78.00
14755;DHT22;7469;50.906;6.952;2022-07-29T02:19:37;19.40;78.70
14755;DHT22;7469;50.906;6.952;2022-07-29T02:22:06;19.40;79.30
14755;DHT22;7469;50.906;6.952;2022-07-29T02:24:37;19.30;80.10
14755;DHT22;7469;50.906;6.952;2022-07-29T02:27:08;19.20;81.20
14755;DHT22;7469;50.906;6.952;2022-07-29T02:29:39;19.20;82.10
14755;DHT22;7469;50.906;6.952;2022-07-29T02:32:08;19.10;82.60
14755;DHT22;7469;50.906;6.952;2022-07-29T02:34:40;19.00;83.00
14755;DHT22;7469;50.906;6.952;2022-07-29T02:37:09;19.00;83.80
14755;DHT22;7469;50.906;6.952;2022-07-29T02:39:39;19.00;84.60
14755;DHT22;7469;50.906;6.952;2022-07-29T02:42:12;18.90;85.40
14755;DHT22;7469;50.906;6.952;2022-07-29T02:44:42;18.90;86.50
14755;DHT22;7469;50.906;6.952;2022-07-29T02:47:15;18.80;87.30
14755;DHT22;7469;50.906;6.952;2022-07-29T02:49:49;18.80;88.20
14755;DHT22;7469;50.906;6.952;2022-07-29T02:52:23;18.80;88.90
14755;DHT22;7469;50.906;6.952;2022-07-29T02:54:55;18.70;89.10
14755;DHT22;7469;50.906;6.952;2022-07-29T02:57:30;18.70;89.40
14755;DHT22;7469;50.906;6.952;2022-07-29T03:00:04;18.60;89.80
14755;DHT22;7469;50.906;6.952;2022-07-29T03:02:35;18.60;90.10
14755;DHT22;7469;50.906;6.952;2022-07-29T03:05:06;18.60;90.40
14755;DHT22;7469;50.906;6.952;2022-07-29T03:07:37;18.60;90.90
14755;DHT22;7469;50.906;6.952;2022-07-29T03:10:07;18.50;91.80
14755;DHT22;7469;50.906;6.952;2022-07-29T03:12:40;18.50;92.50
14755;DHT22;7469;50.906;6.952;2022-07-29T03:15:10;18.40;93.20
14755;DHT22;7469;50.906;6.952;2022-07-29T03:17:39;18.40;93.70
14755;DHT22;7469;50.906;6.952;2022-07-29T03:20:08;18.40;94.10
14755;DHT22;7469;50.906;6.952;2022-07-29T03:22:39;18.30;94.40
14755;DHT22;7469;50.906;6.952;2022-07-29T03:25:11;18.30;94.80
14755;DHT22;7469;50.906;6.952;2022-07-29T03:27:39;18.30;94.90
14755;DHT22;7469;50.906;6.952;2022-07-29T03:30:10;18.40;95.00
14755;DHT22;7469;50.906;6.952;2022-07-29T03:32:46;18.40;95.10
14755;DHT22;7469;50.906;6.952;2022-07-29T03:35:15;18.40;95.20
14755;DHT22;7469;50.906;6.952;2022-07-29T03:37:44;18.50;95.20
14755;DHT22;7469;50.906;6.952;2022-07-29T03:40:15;18.50;95.20
14755;DHT22;7469;50.906;6.952;2022-07-29T03:42:45;18.50;95.20
14755;DHT22;7469;50.906;6.952;2022-07-29T03:45:17;18.60;95.10
14755;DHT22;7469;50.906;6.952;2022-07-29T03:47:50;18.60;94.90
14755;DHT22;7469;50.906;6.952;2022-07-29T03:50:26;18.60;94.90
14755;DHT22;7469;50.906;6.952;2022-07-29T03:52:54;18.60;94.80
14755;DHT22;7469;50.906;6.952;2022-07-29T03:55:23;18.60;94.70
14755;DHT22;7469;50.906;6.952;2022-07-29T03:57:52;18.60;94.70
14755;DHT22;7469;50.906;6.952;2022-07-29T04:00:22;18.50;94.80
14755;DHT22;7469;50.906;6.952;2022-07-29T04:02:50;18.50;94.80
14755;DHT22;7469;50.906;6.952;2022-07-29T04:05:18;18.50;94.90
14755;DHT22;7469;50.906;6.952;2022-07-29T04:07:47;18.50;94.80
14755;DHT22;7469;50.906;6.952;2022-07-29T04:10:16;18.50;94.80
14755;DHT22;7469;50.906;6.952;2022-07-29T04:12:56;18.50;94.80
14755;DHT22;7469;50.906;6.952;2022-07-29T04:15:25;18.60;94.70
14755;DHT22;7469;50.906;6.952;2022-07-29T04:17:57;18.50;94.60
14755;DHT22;7469;50.906;6.952;2022-07-29T04:20:25;18.60;94.60
14755;DHT22;7469;50.906;6.952;2022-07-29T04:22:53;18.60;94.60
14755;DHT22;7469;50.906;6.952;2022-07-29T04:25:21;18.60;94.50
14755;DHT22;7469;50.906;6.952;2022-07-29T04:27:49;18.60;94.40
14755;DHT22;7469;50.906;6.952;2022-07-29T04:30:32;18.60;94.30
14755;DHT22;7469;50.906;6.952;2022-07-29T04:33:01;18.60;94.10
14755;DHT22;7469;50.906;6.952;2022-07-29T04:35:30;18.70;94.00
14755;DHT22;7469;50.906;6.952;2022-07-29T04:38:05;18.70;93.80
14755;DHT22;7469;50.906;6.952;2022-07-29T04:40:42;18.70;93.70
14755;DHT22;7469;50.906;6.952;2022-07-29T04:43:10;18.70;93.60
14755;DHT22;7469;50.906;6.952;2022-07-29T04:45:42;18.70;93.50
14755;DHT22;7469;50.906;6.952;2022-07-29T04:48:10;18.80;93.50
14755;DHT22;7469;50.906;6.952;2022-07-29T04:50:39;18.80;93.50
14755;DHT22;7469;50.906;6.952;2022-07-29T04:53:07;18.90;93.40
14755;DHT22;7469;50.906;6.952;2022-07-29T04:55:35;18.90;93.10
14755;DHT22;7469;50.906;6.952;2022-07-29T04:58:04;18.90;92.80
14755;DHT22;7469;50.906;6.952;2022-07-29T05:00:34;18.90;92.70
14755;DHT22;7469;50.906;6.952;2022-07-29T05:03:03;19.00;92.60
14755;DHT22;7469;50.906;6.952;2022-07-29T05:05:32;19.00;92.50
14755;DHT22;7469;50.906;6.952;2022-07-29T05:08:00;19.10;92.40
14755;DHT22;7469;50.906;6.952;2022-07-29T05:10:28;19.10;92.10
14755;DHT22;7469;50.906;6.952;2022-07-29T05:12:56;19.20;91.90
14755;DHT22;7469;50.906;6.952;2022-07-29T05:15:24;19.20;91.90
14755;DHT22;7469;50.906;6.952;2022-07-29T05:17:52;19.30;91.60
14755;DHT22;7469;50.906;6.952;2022-07-29T05:20:21;19.40;91.50
14755;DHT22;7469;50.906;6.952;2022-07-29T05:22:53;19.40;91.40
14755;DHT22;7469;50.906;6.952;2022-07-29T05:25:21;19.50;91.20
14755;DHT22;7469;50.906;6.952;2022-07-29T05:28:06;19.50;90.90
14755;DHT22;7469;50.906;6.952;2022-07-29T05:30:34;19.60;90.90
14755;DHT22;7469;50.906;6.952;2022-07-29T05:33:02;19.70;90.80
14755;DHT22;7469;50.906;6.952;2022-07-29T05:35:31;19.70;90.70
14755;DHT22;7469;50.906;6.952;2022-07-29T05:38:01;19.80;90.50
14755;DHT22;7469;50.906;6.952;2022-07-29T05:40:29;19.90;90.30
14755;DHT22;7469;50.906;6.952;2022-07-29T05:42:57;19.90;90.00
14755;DHT22;7469;50.906;6.952;2022-07-29T05:45:25;19.90;89.80
14755;DHT22;7469;50.906;6.952;2022-07-29T05:47:54;20.00;89.40
14755;DHT22;7469;50.906;6.952;2022-07-29T05:50:21;20.00;89.00
14755;DHT22;7469;50.906;6.952;2022-07-29T05:52:51;20.10;88.80
14755;DHT22;7469;50.906;6.952;2022-07-29T05:55:19;20.10;88.50
14755;DHT22;7469;50.906;6.952;2022-07-29T05:57:47;20.20;88.50
14755;DHT22;7469;50.906;6.952;2022-07-29T06:00:16;20.30;88.30
14755;DHT22;7469;50.906;6.952;2022-07-29T06:02:44;20.40;88.00
14755;DHT22;7469;50.906;6.952;2022-07-29T06:05:12;20.50;88.50
14755;DHT22;7469;50.906;6.952;2022-07-29T06:07:43;20.60;87.30
14755;DHT22;7469;50.906;6.952;2022-07-29T06:10:18;20.70;86.80
14755;DHT22;7469;50.906;6.952;2022-07-29T06:12:51;20.80;86.30
14755;DHT22;7469;50.906;6.952;2022-07-29T06:15:19;20.80;86.10
14755;DHT22;7469;50.906;6.952;2022-07-29T06:17:47;20.90;85.80
14755;DHT22;7469;50.906;6.952;2022-07-29T06:20:27;20.90;85.60
14755;DHT22;7469;50.906;6.952;2022-07-29T06:22:56;20.90;85.40
14755;DHT22;7469;50.906;6.952;2022-07-29T06:25:26;20.90;85.60
14755;DHT22;7469;50.906;6.952;2022-07-29T06:27:55;20.80;85.50
14755;DHT22;7469;50.906;6.952;2022-07-29T06:30:23;20.80;85.40
14755;DHT22;7469;50.906;6.952;2022-07-29T06:32:52;20.70;85.30
14755;DHT22;7469;50.906;6.952;2022-07-29T06:35:20;20.70;85.40
14755;DHT22;7469;50.906;6.952;2022-07-29T06:38:08;20.70;85.90
14755;DHT22;7469;50.906;6.952;2022-07-29T06:40:57;20.60;86.40
14755;DHT22;7469;50.906;6.952;2022-07-29T06:43:30;20.60;86.50
14755;DHT22;7469;50.906;6.952;2022-07-29T06:46:01;20.50;86.40
14755;DHT22;7469;50.906;6.952;2022-07-29T06:48:30;20.50;86.40
14755;DHT22;7469;50.906;6.952;2022-07-29T06:50:58;20.50;86.60
14755;DHT22;7469;50.906;6.952;2022-07-29T06:53:27;20.50;86.80
14755;DHT22;7469;50.906;6.952;2022-07-29T06:55:56;20.60;86.80
14755;DHT22;7469;50.906;6.952;2022-07-29T06:58:25;20.60;86.40
14755;DHT22;7469;50.906;6.952;2022-07-29T07:00:53;20.70;87.40
14755;DHT22;7469;50.906;6.952;2022-07-29T07:03:21;20.70;88.30
14755;DHT22;7469;50.906;6.952;2022-07-29T07:05:49;20.80;89.10
14755;DHT22;7469;50.906;6.952;2022-07-29T07:08:17;20.80;90.00
14755;DHT22;7469;50.906;6.952;2022-07-29T07:10:46;20.90;90.00
14755;DHT22;7469;50.906;6.952;2022-07-29T07:13:15;21.00;90.00
14755;DHT22;7469;50.906;6.952;2022-07-29T07:15:44;21.10;89.90
14755;DHT22;7469;50.906;6.952;2022-07-29T07:18:14;21.20;89.70
14755;DHT22;7469;50.906;6.952;2022-07-29T07:20:42;21.40;89.40
14755;DHT22;7469;50.906;6.952;2022-07-29T07:23:11;21.60;90.10
14755;DHT22;7469;50.906;6.952;2022-07-29T07:25:39;21.80;90.10
14755;DHT22;7469;50.906;6.952;2022-07-29T07:28:07;22.00;89.80
14755;DHT22;7469;50.906;6.952;2022-07-29T07:30:36;22.10;88.70
14755;DHT22;7469;50.906;6.952;2022-07-29T07:33:04;22.10;88.10
14755;DHT22;7469;50.906;6.952;2022-07-29T07:35:32;22.10;88.10
14755;DHT22;7469;50.906;6.952;2022-07-29T07:38:00;22.00;88.30
14755;DHT22;7469;50.906;6.952;2022-07-29T07:40:28;21.90;89.30
14755;DHT22;7469;50.906;6.952;2022-07-29T07:42:56;21.80;90.00
14755;DHT22;7469;50.906;6.952;2022-07-29T07:45:25;21.60;90.80
14755;DHT22;7469;50.906;6.952;2022-07-29T07:47:54;21.30;92.10
14755;DHT22;7469;50.906;6.952;2022-07-29T07:50:22;21.10;93.10
14755;DHT22;7469;50.906;6.952;2022-07-29T07:52:52;21.00;93.70
14755;DHT22;7469;50.906;6.952;2022-07-29T07:55:21;21.00;94.30
14755;DHT22;7469;50.906;6.952;2022-07-29T07:57:49;20.80;95.00
14755;DHT22;7469;50.906;6.952;2022-07-29T08:00:18;20.70;95.50
14755;DHT22;7469;50.906;6.952;2022-07-29T08:02:49;20.60;96.00
14755;DHT22;7469;50.906;6.952;2022-07-29T08:05:19;20.60;96.30
14755;DHT22;7469;50.906;6.952;2022-07-29T08:07:48;20.60;96.30
14755;DHT22;7469;50.906;6.952;2022-07-29T08:10:16;20.70;96.30
14755;DHT22;7469;50.906;6.952;2022-07-29T08:13:06;20.70;96.20
14755;DHT22;7469;50.906;6.952;2022-07-29T08:15:35;20.70;96.60
14755;DHT22;7469;50.906;6.952;2022-07-29T08:18:03;20.80;96.40
14755;DHT22;7469;50.906;6.952;2022-07-29T08:20:36;20.80;96.50
14755;DHT22;7469;50.906;6.952;2022-07-29T08:23:07;20.80;96.60
14755;DHT22;7469;50.906;6.952;2022-07-29T08:25:36;20.80;96.80
14755;DHT22;7469;50.906;6.952;2022-07-29T08:28:06;20.90;97.00
14755;DHT22;7469;50.906;6.952;2022-07-29T08:30:34;20.90;97.20
14755;DHT22;7469;50.906;6.952;2022-07-29T08:33:02;21.00;97.30
14755;DHT22;7469;50.906;6.952;2022-07-29T08:35:30;21.10;97.50
14755;DHT22;7469;50.906;6.952;2022-07-29T08:38:03;21.10;97.70
14755;DHT22;7469;50.906;6.952;2022-07-29T08:40:31;21.20;97.80
14755;DHT22;7469;50.906;6.952;2022-07-29T08:43:04;21.20;98.20
14755;DHT22;7469;50.906;6.952;2022-07-29T08:45:41;21.20;98.00
14755;DHT22;7469;50.906;6.952;2022-07-29T08:48:14;21.20;98.60
14755;DHT22;7469;50.906;6.952;2022-07-29T08:50:43;21.20;99.20
14755;DHT22;7469;50.906;6.952;2022-07-29T08:53:15;21.30;99.20
14755;DHT22;7469;50.906;6.952;2022-07-29T08:55:45;21.50;99.10
14755;DHT22;7469;50.906;6.952;2022-07-29T08:58:14;21.60;99.00
14755;DHT22;7469;50.906;6.952;2022-07-29T09:00:44;21.80;98.90
14755;DHT22;7469;50.906;6.952;2022-07-29T09:03:17;21.90;99.00
14755;DHT22;7469;50.906;6.952;2022-07-29T09:05:46;22.40;98.70
14755;DHT22;7469;50.906;6.952;2022-07-29T09:08:16;22.90;97.50
14755;DHT22;7469;50.906;6.952;2022-07-29T09:10:45;23.20;96.60
14755;DHT22;7469;50.906;6.952;2022-07-29T09:13:13;23.10;96.30
14755;DHT22;7469;50.906;6.952;2022-07-29T09:15:41;23.00;96.20
14755;DHT22;7469;50.906;6.952;2022-07-29T09:18:09;22.80;96.30
14755;DHT22;7469;50.906;6.952;2022-07-29T09:20:56;22.90;96.20
14755;DHT22;7469;50.906;6.952;2022-07-29T09:24:00;23.10;95.70
14755;DHT22;7469;50.906;6.952;2022-07-29T09:26:28;23.50;95.10
14755;DHT22;7469;50.906;6.952;2022-07-29T09:28:58;24.30;93.90
14755;DHT22;7469;50.906;6.952;2022-07-29T09:31:37;24.90;92.60
14755;DHT22;7469;50.906;6.952;2022-07-29T09:34:07;25.40;91.50
14755;DHT22;7469;50.906;6.952;2022-07-29T09:36:41;25.70;90.60
14755;DHT22;7469;50.906;6.952;2022-07-29T09:39:12;26.20;89.40
14755;DHT22;7469;50.906;6.952;2022-07-29T09:41:50;26.20;86.90
14755;DHT22;7469;50.906;6.952;2022-07-29T09:44:20;26.10;85.30
14755;DHT22;7469;50.906;6.952;2022-07-29T09:46:58;25.80;85.30
14755;DHT22;7469;50.906;6.952;2022-07-29T09:49:33;25.70;85.50
14755;DHT22;7469;50.906;6.952;2022-07-29T09:52:04;25.80;85.40
14755;DHT22;7469;50.906;6.952;2022-07-29T09:54:35;25.70;85.10
14755;DHT22;7469;50.906;6.952;2022-07-29T09:57:07;25.60;85.10
14755;DHT22;7469;50.906;6.952;2022-07-29T09:59:39;25.70;84.50
14755;DHT22;7469;50.906;6.952;2022-07-29T10:02:16;25.70;83.70
14755;DHT22;7469;50.906;6.952;2022-07-29T10:04:50;25.70;83.00
14755;DHT22;7469;50.906;6.952;2022-07-29T10:07:18;25.50;82.50
14755;DHT22;7469;50.906;6.952;2022-07-29T10:09:52;25.50;81.80
14755;DHT22;7469;50.906;6.952;2022-07-29T10:12:21;25.60;81.30
14755;DHT22;7469;50.906;6.952;2022-07-29T10:14:50;25.70;81.00
14755;DHT22;7469;50.906;6.952;2022-07-29T10:17:18;25.80;80.80
14755;DHT22;7469;50.906;6.952;2022-07-29T10:19:47;26.00;80.50
14755;DHT22;7469;50.906;6.952;2022-07-29T10:22:16;26.10;79.50
14755;DHT22;7469;50.906;6.952;2022-07-29T10:25:07;26.30;78.20
14755;DHT22;7469;50.906;6.952;2022-07-29T10:27:35;26.60;76.60
14755;DHT22;7469;50.906;6.952;2022-07-29T10:30:04;26.70;75.80
14755;DHT22;7469;50.906;6.952;2022-07-29T10:32:39;27.10;75.00
14755;DHT22;7469;50.906;6.952;2022-07-29T10:35:18;27.30;73.00
14755;DHT22;7469;50.906;6.952;2022-07-29T10:38:02;27.60;72.00
14755;DHT22;7469;50.906;6.952;2022-07-29T10:40:42;27.80;70.00
14755;DHT22;7469;50.906;6.952;2022-07-29T10:43:37;28.00;68.30
14755;DHT22;7469;50.906;6.952;2022-07-29T10:46:08;28.40;66.30
14755;DHT22;7469;50.906;6.952;2022-07-29T10:49:04;28.70;64.90
14755;DHT22;7469;50.906;6.952;2022-07-29T10:51:52;29.50;63.60
14755;DHT22;7469;50.906;6.952;2022-07-29T10:54:37;31.60;57.20
14755;DHT22;7469;50.906;6.952;2022-07-29T10:57:16;33.50;48.70
14755;DHT22;7469;50.906;6.952;2022-07-29T10:59:47;34.60;43.30
14755;DHT22;7469;50.906;6.952;2022-07-29T11:02:41;35.90;39.00
14755;DHT22;7469;50.906;6.952;2022-07-29T11:05:12;37.10;34.80
14755;DHT22;7469;50.906;6.952;2022-07-29T11:08:25;37.20;32.30
14755;DHT22;7469;50.906;6.952;2022-07-29T11:14:04;36.80;30.80
14755;DHT22;7469;50.906;6.952;2022-07-29T11:17:01;36.80;30.70
14755;DHT22;7469;50.906;6.952;2022-07-29T11:19:33;36.60;30.00
14755;DHT22;7469;50.906;6.952;2022-07-29T11:22:02;36.40;29.70
14755;DHT22;7469;50.906;6.952;2022-07-29T11:24:31;35.90;29.20
14755;DHT22;7469;50.906;6.952;2022-07-29T11:27:12;35.30;29.30
14755;DHT22;7469;50.906;6.952;2022-07-29T11:29:56;34.70;29.50
14755;DHT22;7469;50.906;6.952;2022-07-29T11:32:36;34.00;29.50
14755;DHT22;7469;50.906;6.952;2022-07-29T11:35:13;33.50;29.80
14755;DHT22;7469;50.906;6.952;2022-07-29T11:37:44;33.20;30.00
14755;DHT22;7469;50.906;6.952;2022-07-29T11:40:21;32.40;30.70
14755;DHT22;7469;50.906;6.952;2022-07-29T11:42:50;32.20;32.10
14755;DHT22;7469;50.906;6.952;2022-07-29T11:45:24;32.00;33.40
14755;DHT22;7469;50.906;6.952;2022-07-29T11:48:15;31.80;33.70
14755;DHT22;7469;50.906;6.952;2022-07-29T11:51:09;31.50;33.60
14755;DHT22;7469;50.906;6.952;2022-07-29T11:53:39;31.30;33.50
14755;DHT22;7469;50.906;6.952;2022-07-29T11:56:09;31.10;33.30
14755;DHT22;7469;50.906;6.952;2022-07-29T11:58:42;30.90;33.70
14755;DHT22;7469;50.906;6.952;2022-07-29T12:01:17;30.90;34.20
14755;DHT22;7469;50.906;6.952;2022-07-29T12:03:45;30.90;34.30
14755;DHT22;7469;50.906;6.952;2022-07-29T12:06:14;30.90;35.10
14755;DHT22;7469;50.906;6.952;2022-07-29T12:08:44;30.90;35.80
14755;DHT22;7469;50.906;6.952;2022-07-29T12:11:17;30.70;35.80
14755;DHT22;7469;50.906;6.952;2022-07-29T12:13:47;30.50;36.20
14755;DHT22;7469;50.906;6.952;2022-07-29T12:16:19;30.20;36.50
14755;DHT22;7469;50.906;6.952;2022-07-29T12:18:56;30.00;36.70
14755;DHT22;7469;50.906;6.952;2022-07-29T12:21:25;29.70;36.80
14755;DHT22;7469;50.906;6.952;2022-07-29T12:23:56;29.40;36.90
14755;DHT22;7469;50.906;6.952;2022-07-29T12:26:35;29.30;37.20
14755;DHT22;7469;50.906;6.952;2022-07-29T12:29:03;29.20;37.30
14755;DHT22;7469;50.906;6.952;2022-07-29T12:31:42;29.30;37.20
14755;DHT22;7469;50.906;6.952;2022-07-29T12:34:12;29.20;36.90
14755;DHT22;7469;50.906;6.952;2022-07-29T12:36:41;29.30;37.10
14755;DHT22;7469;50.906;6.952;2022-07-29T12:39:10;29.40;37.60
14755;DHT22;7469;50.906;6.952;2022-07-29T12:41:39;29.50;37.70
14755;DHT22;7469;50.906;6.952;2022-07-29T12:44:07;29.60;37.30
14755;DHT22;7469;50.906;6.952;2022-07-29T12:46:35;29.70;36.90
14755;DHT22;7469;50.906;6.952;2022-07-29T12:49:06;29.80;36.70
14755;DHT22;7469;50.906;6.952;2022-07-29T12:51:37;29.90;36.30
14755;DHT22;7469;50.906;6.952;2022-07-29T12:54:07;29.90;36.00
14755;DHT22;7469;50.906;6.952;2022-07-29T12:56:37;30.10;35.30
14755;DHT22;7469;50.906;6.952;2022-07-29T12:59:18;30.10;34.60
14755;DHT22;7469;50.906;6.952;2022-07-29T13:01:47;30.20;34.50
14755;DHT22;7469;50.906;6.952;2022-07-29T13:04:26;30.10;34.10
14755;DHT22;7469;50.906;6.952;2022-07-29T13:06:59;30.00;34.20
14755;DHT22;7469;50.906;6.952;2022-07-29T13:09:41;30.10;34.10
14755;DHT22;7469;50.906;6.952;2022-07-29T13:12:10;30.10;33.80
14755;DHT22;7469;50.906;6.952;2022-07-29T13:14:40;30.40;33.90
14755;DHT22;7469;50.906;6.952;2022-07-29T13:17:10;30.70;33.60
14755;DHT22;7469;50.906;6.952;2022-07-29T13:19:41;30.70;33.10
14755;DHT22;7469;50.906;6.952;2022-07-29T13:22:10;30.60;33.00
14755;DHT22;7469;50.906;6.952;2022-07-29T13:24:49;30.70;33.30
14755;DHT22;7469;50.906;6.952;2022-07-29T13:27:17;30.80;33.20
14755;DHT22;7469;50.906;6.952;2022-07-29T13:29:46;31.00;33.10
14755;DHT22;7469;50.906;6.952;2022-07-29T13:32:15;31.20;32.80
14755;DHT22;7469;50.906;6.952;2022-07-29T13:34:44;31.40;32.30
14755;DHT22;7469;50.906;6.952;2022-07-29T13:37:13;31.30;32.00
14755;DHT22;7469;50.906;6.952;2022-07-29T13:39:40;31.20;32.30
14755;DHT22;7469;50.906;6.952;2022-07-29T13:42:18;31.00;32.60
14755;DHT22;7469;50.906;6.952;2022-07-29T13:44:46;30.90;33.50
14755;DHT22;7469;50.906;6.952;2022-07-29T13:47:15;30.80;34.40
14755;DHT22;7469;50.906;6.952;2022-07-29T13:49:44;30.70;35.00
14755;DHT22;7469;50.906;6.952;2022-07-29T13:52:13;30.60;35.20
14755;DHT22;7469;50.906;6.952;2022-07-29T13:54:42;30.60;35.70
14755;DHT22;7469;50.906;6.952;2022-07-29T13:57:11;30.80;35.90
14755;DHT22;7469;50.906;6.952;2022-07-29T13:59:40;30.80;35.80
14755;DHT22;7469;50.906;6.952;2022-07-29T14:02:09;30.80;35.90
14755;DHT22;7469;50.906;6.952;2022-07-29T14:04:41;30.70;35.80
14755;DHT22;7469;50.906;6.952;2022-07-29T14:07:10;30.70;35.30
14755;DHT22;7469;50.906;6.952;2022-07-29T14:09:42;30.80;34.90
14755;DHT22;7469;50.906;6.952;2022-07-29T14:12:10;30.90;34.90
14755;DHT22;7469;50.906;6.952;2022-07-29T14:14:38;31.00;34.70
14755;DHT22;7469;50.906;6.952;2022-07-29T14:17:06;31.00;34.50
14755;DHT22;7469;50.906;6.952;2022-07-29T14:19:35;31.10;34.60
14755;DHT22;7469;50.906;6.952;2022-07-29T14:22:05;31.20;34.10
14755;DHT22;7469;50.906;6.952;2022-07-29T14:24:36;31.10;33.40
14755;DHT22;7469;50.906;6.952;2022-07-29T14:27:05;30.90;33.40
14755;DHT22;7469;50.906;6.952;2022-07-29T14:29:34;30.70;33.90
14755;DHT22;7469;50.906;6.952;2022-07-29T14:32:04;30.50;34.20
14755;DHT22;7469;50.906;6.952;2022-07-29T14:34:32;30.20;34.60
14755;DHT22;7469;50.906;6.952;2022-07-29T14:37:01;29.90;34.70
14755;DHT22;7469;50.906;6.952;2022-07-29T14:39:29;29.60;35.00
14755;DHT22;7469;50.906;6.952;2022-07-29T14:41:59;29.40;35.40
14755;DHT22;7469;50.906;6.952;2022-07-29T14:44:27;29.30;36.00
14755;DHT22;7469;50.906;6.952;2022-07-29T14:46:58;29.40;36.60
14755;DHT22;7469;50.906;6.952;2022-07-29T14:49:33;29.60;36.90
14755;DHT22;7469;50.906;6.952;2022-07-29T14:52:01;29.70;37.10
14755;DHT22;7469;50.906;6.952;2022-07-29T14:54:29;29.80;37.40
14755;DHT22;7469;50.906;6.952;2022-07-29T14:56:59;29.90;37.30
14755;DHT22;7469;50.906;6.952;2022-07-29T14:59:27;30.00;37.80
14755;DHT22;7469;50.906;6.952;2022-07-29T15:01:55;30.10;36.90
14755;DHT22;7469;50.906;6.952;2022-07-29T15:04:24;30.20;36.80
14755;DHT22;7469;50.906;6.952;2022-07-29T15:06:52;30.10;36.60
14755;DHT22;7469;50.906;6.952;2022-07-29T15:09:21;30.10;36.50
14755;DHT22;7469;50.906;6.952;2022-07-29T15:11:49;30.00;36.40
14755;DHT22;7469;50.906;6.952;2022-07-29T15:14:19;30.00;36.20
14755;DHT22;7469;50.906;6.952;2022-07-29T15:16:47;29.90;35.80
14755;DHT22;7469;50.906;6.952;2022-07-29T15:19:18;29.90;35.70
14755;DHT22;7469;50.906;6.952;2022-07-29T15:21:46;29.90;35.00
14755;DHT22;7469;50.906;6.952;2022-07-29T15:24:15;29.90;35.00
14755;DHT22;7469;50.906;6.952;2022-07-29T15:26:43;29.90;34.80
14755;DHT22;7469;50.906;6.952;2022-07-29T15:29:11;29.90;35.60
14755;DHT22;7469;50.906;6.952;2022-07-29T15:31:41;29.80;35.20
14755;DHT22;7469;50.906;6.952;2022-07-29T15:34:09;29.80;35.20
14755;DHT22;7469;50.906;6.952;2022-07-29T15:36:38;29.80;35.10
14755;DHT22;7469;50.906;6.952;2022-07-29T15:39:21;29.80;34.60
14755;DHT22;7469;50.906;6.952;2022-07-29T15:41:50;29.70;34.40
14755;DHT22;7469;50.906;6.952;2022-07-29T15:44:18;29.70;34.30
14755;DHT22;7469;50.906;6.952;2022-07-29T15:46:48;29.70;34.90
14755;DHT22;7469;50.906;6.952;2022-07-29T15:49:34;29.70;35.40
14755;DHT22;7469;50.906;6.952;2022-07-29T15:52:15;29.70;35.70
14755;DHT22;7469;50.906;6.952;2022-07-29T15:54:43;29.50;35.90
14755;DHT22;7469;50.906;6.952;2022-07-29T15:57:12;29.40;36.20
14755;DHT22;7469;50.906;6.952;2022-07-29T15:59:40;29.30;36.30
14755;DHT22;7469;50.906;6.952;2022-07-29T16:02:09;29.10;36.30
14755;DHT22;7469;50.906;6.952;2022-07-29T16:04:38;28.80;36.60
14755;DHT22;7469;50.906;6.952;2022-07-29T16:07:06;28.70;36.60
14755;DHT22;7469;50.906;6.952;2022-07-29T16:09:34;28.50;36.60
14755;DHT22;7469;50.906;6.952;2022-07-29T16:12:02;28.40;36.70
14755;DHT22;7469;50.906;6.952;2022-07-29T16:14:40;28.30;35.90